createdAt,value
2018-02-08T00:01:52.005Z,26.45
2018-02-08T00:04:21.788Z,26.23
2018-02-08T00:06:52.440Z,25.70
2018-02-08T00:09:24.476Z,25.92
2018-02-08T00:12:05.461Z,26.05
2018-02-08T00:14:34.444Z,27.65
2018-02-08T00:17:19.027Z,25.73
2018-02-08T00:19:50.632Z,27.95
2018-02-08T00:22:30.078Z,25.37
2018-02-08T00:24:57.577Z,24.00
2018-02-08T00:27:25.088Z,26.80
2018-02-08T00:29:52.600Z,25.40
2018-02-08T00:32:24.596Z,26.37
2018-02-08T00:34:52.169Z,27.23
2018-02-08T00:37:21.972Z,27.17
2018-02-08T00:39:51.677Z,26.27
2018-02-08T00:42:21.100Z,25.60
2018-02-08T00:44:51.089Z,27.55
2018-02-08T00:47:20.289Z,29.52
2018-02-08T00:49:51.477Z,26.75
2018-02-08T00:52:21.481Z,27.35
2018-02-08T00:54:51.662Z,26.25
2018-02-08T00:57:22.064Z,29.27
2018-02-08T00:59:51.897Z,26.77
2018-02-08T01:02:21.528Z,26.83
2018-02-08T01:04:51.277Z,25.98
2018-02-08T01:07:21.886Z,27.52
2018-02-08T01:09:56.053Z,28.42
2018-02-08T01:12:23.549Z,26.75
2018-02-08T01:14:52.141Z,24.70
2018-02-08T01:17:21.917Z,24.80
2018-02-08T01:19:51.825Z,26.45
2018-02-08T01:22:21.112Z,26.80
2018-02-08T01:24:51.237Z,26.42
2018-02-08T01:27:21.388Z,26.23
2018-02-08T01:29:52.555Z,27.75
2018-02-08T01:32:21.994Z,28.30
2018-02-08T01:34:51.771Z,28.15
2018-02-08T01:37:21.033Z,27.42
2018-02-08T01:39:52.692Z,28.95
2018-02-08T01:42:22.709Z,26.60
2018-02-08T01:44:52.905Z,25.70
2018-02-08T01:47:22.960Z,26.45
2018-02-08T01:49:52.108Z,26.10
2018-02-08T01:52:22.737Z,26.02
2018-02-08T01:54:51.553Z,27.17
2018-02-08T01:57:22.724Z,26.67
2018-02-08T01:59:52.646Z,26.75
2018-02-08T02:02:22.789Z,26.90
2018-02-08T02:04:52.707Z,25.25
2018-02-08T02:07:22.899Z,26.77
2018-02-08T02:09:52.928Z,27.20
2018-02-08T02:12:22.748Z,28.33
2018-02-08T02:14:53.337Z,26.17
2018-02-08T02:17:22.635Z,27.50
2018-02-08T02:19:53.093Z,27.48
2018-02-08T02:22:22.088Z,25.00
2018-02-08T02:24:52.000Z,25.90
2018-02-08T02:27:25.503Z,27.02
2018-02-08T02:29:54.257Z,25.50
2018-02-08T02:32:28.101Z,27.67
2018-02-08T02:34:58.161Z,27.02
2018-02-08T02:37:25.660Z,25.73
2018-02-08T02:39:53.189Z,27.98
2018-02-08T02:42:21.725Z,25.48
2018-02-08T02:45:03.129Z,26.15
2018-02-08T02:47:30.635Z,26.67
2018-02-08T02:49:58.912Z,25.95
2018-02-08T02:52:26.409Z,26.80
2018-02-08T02:54:54.688Z,25.35
2018-02-08T02:57:23.272Z,26.35
2018-02-08T02:59:52.988Z,26.45
2018-02-08T03:02:25.293Z,25.42
2018-02-08T03:04:53.573Z,27.35
2018-02-08T03:07:23.161Z,27.33
2018-02-08T03:09:51.112Z,25.95
2018-02-08T03:12:19.500Z,26.95
2018-02-08T03:14:52.656Z,26.83
2018-02-08T03:17:22.921Z,26.30
2018-02-08T03:19:53.110Z,26.40
2018-02-08T03:22:23.338Z,27.95
2018-02-08T03:24:52.173Z,28.20
2018-02-08T03:27:22.689Z,27.65
2018-02-08T03:29:51.765Z,29.17
2018-02-08T03:32:21.213Z,28.70
2018-02-08T03:34:52.182Z,28.77
2018-02-08T03:37:22.783Z,28.25
2018-02-08T03:39:52.128Z,28.15
2018-02-08T03:42:23.004Z,27.50
2018-02-08T03:44:52.045Z,26.67
2018-02-08T03:47:22.166Z,26.67
2018-02-08T03:49:50.856Z,26.40
2018-02-08T03:52:21.828Z,27.10
2018-02-08T03:54:52.016Z,26.50
2018-02-08T03:57:21.829Z,25.55
2018-02-08T03:59:52.121Z,26.95
2018-02-08T04:02:21.313Z,26.00
2018-02-08T04:04:51.815Z,27.05
2018-02-08T04:07:30.857Z,25.77
2018-02-08T04:09:58.376Z,25.85
2018-02-08T04:12:26.640Z,25.20
2018-02-08T04:14:54.162Z,24.33
2018-02-08T04:17:21.967Z,24.70
2018-02-08T04:19:52.744Z,26.00
2018-02-08T04:22:22.155Z,26.17
2018-02-08T04:24:53.176Z,24.20
2018-02-08T04:27:22.885Z,26.35
2018-02-08T04:29:52.937Z,25.30
2018-02-08T04:32:23.164Z,27.65
2018-02-08T04:34:53.210Z,26.20
2018-02-08T04:37:22.809Z,24.85
2018-02-08T04:40:02.353Z,25.58
2018-02-08T04:42:53.039Z,24.12
2018-02-08T04:45:36.948Z,26.02
2018-02-08T04:48:19.542Z,26.10
2018-02-08T04:50:52.259Z,26.60
2018-02-08T04:53:23.045Z,24.98
2018-02-08T04:55:52.302Z,25.08
2018-02-08T04:58:24.023Z,28.25
2018-02-08T05:00:53.217Z,25.30
2018-02-08T05:03:31.604Z,26.42
2018-02-08T05:05:59.120Z,26.75
2018-02-08T05:08:26.627Z,24.67
2018-02-08T05:10:54.925Z,24.50
2018-02-08T05:13:23.185Z,27.73
2018-02-08T05:15:53.032Z,24.85
2018-02-08T05:18:24.265Z,26.33
2018-02-08T05:20:51.884Z,25.75
2018-02-08T05:23:24.229Z,27.98
2018-02-08T05:25:52.493Z,25.92
2018-02-08T05:28:22.924Z,27.10
2018-02-08T05:30:52.860Z,24.35
2018-02-08T05:33:22.875Z,24.90
2018-02-08T05:35:52.268Z,24.15
2018-02-08T05:38:20.348Z,25.40
2018-02-08T05:40:52.244Z,25.67
2018-02-08T05:43:22.096Z,24.95
2018-02-08T05:45:51.336Z,28.15
2018-02-08T05:48:22.292Z,28.80
2018-02-08T05:50:51.414Z,25.37
2018-02-08T05:53:21.760Z,26.90
2018-02-08T05:55:52.869Z,25.55
2018-02-08T05:58:21.492Z,26.92
2018-02-08T06:01:01.292Z,28.25
2018-02-08T06:03:28.826Z,26.23
2018-02-08T06:05:57.085Z,26.62
2018-02-08T06:08:24.583Z,26.42
2018-02-08T06:10:52.520Z,24.45
2018-02-08T06:13:22.198Z,24.77
2018-02-08T06:15:51.805Z,25.60
2018-02-08T06:18:21.517Z,27.60
2018-02-08T06:20:51.773Z,25.85
2018-02-08T06:23:20.697Z,27.67
2018-02-08T06:25:50.901Z,27.50
2018-02-08T06:28:22.249Z,27.83
2018-02-08T06:30:51.372Z,25.08
2018-02-08T06:33:21.886Z,27.27
2018-02-08T06:35:51.257Z,26.35
2018-02-08T06:38:20.958Z,27.65
2018-02-08T06:40:49.553Z,26.45
2018-02-08T06:43:20.092Z,26.35
2018-02-08T06:45:59.486Z,25.67
2018-02-08T06:48:26.991Z,27.27
2018-02-08T06:50:54.489Z,26.65
2018-02-08T06:53:22.269Z,25.60
2018-02-08T06:55:51.279Z,26.70
2018-02-08T06:58:21.061Z,24.45
2018-02-08T07:00:50.456Z,24.98
2018-02-08T07:03:19.506Z,24.23
2018-02-08T07:05:50.175Z,24.98
2018-02-08T07:08:20.510Z,24.98
2018-02-08T07:10:51.297Z,24.77
2018-02-08T07:13:22.641Z,24.75
2018-02-08T07:15:52.129Z,24.33
2018-02-08T07:18:21.608Z,22.30
2018-02-08T07:20:51.048Z,22.25
2018-02-08T07:23:21.187Z,22.05
2018-02-08T07:25:51.793Z,21.95
2018-02-08T07:28:21.933Z,21.40
2018-02-08T07:30:51.325Z,20.83
2018-02-08T07:33:21.466Z,20.58
2018-02-08T07:35:51.762Z,24.40
2018-02-08T07:38:21.682Z,22.83
2018-02-08T07:40:50.927Z,21.25
2018-02-08T07:43:21.302Z,22.65
2018-02-08T07:45:51.274Z,22.58
2018-02-08T07:48:20.066Z,21.33
2018-02-08T07:50:50.518Z,20.75
2018-02-08T07:53:21.117Z,22.92
2018-02-08T07:55:51.777Z,21.55
2018-02-08T07:58:20.965Z,22.77
2018-02-08T08:00:49.770Z,22.65
2018-02-08T08:03:20.752Z,23.08
2018-02-08T08:05:50.396Z,23.33
2018-02-08T08:08:21.162Z,22.58
2018-02-08T08:10:52.420Z,23.25
2018-02-08T08:13:22.193Z,23.40
2018-02-08T08:15:51.897Z,23.55
2018-02-08T08:18:20.892Z,23.90
2018-02-08T08:20:49.989Z,22.70
2018-02-08T08:23:19.651Z,24.40
2018-02-08T08:25:49.260Z,23.10
2018-02-08T08:28:21.293Z,25.03
2018-02-08T08:30:51.332Z,25.23
2018-02-08T08:33:19.630Z,25.70
2018-02-08T08:35:48.859Z,24.77
2018-02-08T08:38:17.509Z,24.70
2018-02-08T08:40:46.657Z,25.77
2018-02-08T08:43:15.972Z,24.20
2018-02-08T08:45:44.555Z,25.37
2018-02-08T08:48:14.741Z,27.37
2018-02-08T08:50:42.625Z,28.70
2018-02-08T08:53:11.080Z,28.57
2018-02-08T08:55:38.739Z,28.60
2018-02-08T08:58:06.240Z,29.20
2018-02-08T09:00:33.729Z,29.57
2018-02-08T09:03:02.616Z,28.83
2018-02-08T09:05:30.893Z,29.80
2018-02-08T09:07:58.400Z,27.30
2018-02-08T09:10:25.889Z,29.73
2018-02-08T09:12:53.446Z,28.83
2018-02-08T09:15:21.205Z,28.80
2018-02-08T09:17:48.962Z,31.03
2018-02-08T09:20:18.230Z,30.57
2018-02-08T09:22:47.997Z,30.57
2018-02-08T09:25:16.858Z,28.73
2018-02-08T09:27:44.894Z,29.97
2018-02-08T09:30:13.397Z,29.57
2018-02-08T09:32:45.488Z,28.43
2018-02-08T09:35:17.720Z,28.23
2018-02-08T09:37:46.129Z,31.80
2018-02-08T09:40:16.834Z,29.90
2018-02-08T09:42:46.137Z,30.80
2018-02-08T09:45:17.601Z,31.80
2018-02-08T09:47:47.071Z,32.77
2018-02-08T09:50:15.690Z,31.07
2018-02-08T09:52:44.224Z,32.47
2018-02-08T09:55:13.223Z,34.10
2018-02-08T09:57:40.982Z,32.33
2018-02-08T10:00:08.541Z,32.77
2018-02-08T10:02:37.066Z,30.20
2018-02-08T10:05:04.568Z,29.80
2018-02-08T10:07:32.056Z,31.27
2018-02-08T10:09:59.941Z,31.90
2018-02-08T10:12:27.433Z,33.40
2018-02-08T10:14:55.701Z,34.00
2018-02-08T10:17:24.177Z,33.07
2018-02-08T10:19:52.597Z,33.50
2018-02-08T10:22:20.189Z,34.00
2018-02-08T10:24:47.879Z,35.07
2018-02-08T10:27:15.512Z,34.57
2018-02-08T10:29:43.040Z,32.70
2018-02-08T10:32:10.635Z,31.73
2018-02-08T10:34:39.971Z,34.23
2018-02-08T10:37:08.177Z,32.60
2018-02-08T10:39:36.441Z,32.63
2018-02-08T10:42:03.993Z,32.10
2018-02-08T10:44:31.489Z,31.10
2018-02-08T10:46:59.800Z,31.90
2018-02-08T10:49:27.301Z,31.10
2018-02-08T10:51:54.833Z,31.97
2018-02-08T10:54:23.097Z,31.63
2018-02-08T10:56:50.612Z,31.67
2018-02-08T10:59:18.152Z,29.40
2018-02-08T11:01:46.688Z,29.90
2018-02-08T11:04:14.434Z,30.60
2018-02-08T11:06:41.981Z,30.60
2018-02-08T11:09:10.350Z,31.07
2018-02-08T11:11:37.844Z,31.10
2018-02-08T11:14:05.373Z,30.23
2018-02-08T11:16:32.905Z,29.63
2018-02-08T11:19:01.249Z,27.90
2018-02-08T11:21:28.750Z,27.50
2018-02-08T11:23:56.364Z,25.87
2018-02-08T11:26:24.668Z,26.83
2018-02-08T11:28:52.185Z,28.17
2018-02-08T11:31:19.681Z,27.30
2018-02-08T11:33:47.956Z,27.93
2018-02-08T11:36:16.243Z,27.67
2018-02-08T11:38:44.538Z,27.53
2018-02-08T11:41:12.056Z,27.90
2018-02-08T11:43:39.594Z,28.73
2018-02-08T11:46:07.113Z,27.00
2018-02-08T11:48:34.638Z,25.70
2018-02-08T11:51:02.132Z,24.90
2018-02-08T11:53:29.664Z,25.27
2018-02-08T11:55:57.916Z,24.27
2018-02-08T11:58:25.468Z,22.33
2018-02-08T12:00:53.709Z,26.13
2018-02-08T12:03:22.025Z,24.93
2018-02-08T12:05:49.532Z,25.67
2018-02-08T12:08:17.412Z,26.97
2018-02-08T12:10:45.265Z,24.60
2018-02-08T12:13:12.975Z,24.63
2018-02-08T12:15:40.855Z,26.20
2018-02-08T12:18:08.358Z,25.27
2018-02-08T12:20:36.628Z,24.07
2018-02-08T12:23:04.138Z,27.07
2018-02-08T12:25:31.667Z,27.20
2018-02-08T12:27:59.364Z,26.30
2018-02-08T12:30:27.648Z,26.10
2018-02-08T12:32:55.916Z,24.37
2018-02-08T12:35:23.517Z,24.63
2018-02-08T12:37:51.777Z,25.67
2018-02-08T12:40:19.281Z,25.23
2018-02-08T12:42:46.808Z,24.97
2018-02-08T12:45:14.549Z,24.87
2018-02-08T12:47:42.219Z,25.17
2018-02-08T12:50:09.831Z,26.83
2018-02-08T12:52:37.444Z,26.20
2018-02-08T12:55:05.697Z,25.30
2018-02-08T12:57:33.859Z,24.23
2018-02-08T13:00:01.390Z,25.80
2018-02-08T13:02:29.672Z,26.50
2018-02-08T13:04:57.165Z,27.47
2018-02-08T13:07:24.743Z,24.50
2018-02-08T13:09:52.228Z,24.87
2018-02-08T13:12:19.825Z,25.23
2018-02-08T13:14:47.442Z,23.80
2018-02-08T13:17:26.432Z,22.13
2018-02-08T13:19:53.920Z,24.57
2018-02-08T13:22:21.481Z,25.40
2018-02-08T13:24:49.343Z,23.63
2018-02-08T13:27:17.044Z,23.07
2018-02-08T13:29:46.314Z,23.23
2018-02-08T13:32:16.665Z,24.33
2018-02-08T13:34:46.449Z,24.20
2018-02-08T13:37:15.809Z,23.83
2018-02-08T13:39:47.297Z,23.77
2018-02-08T13:42:17.603Z,22.93
2018-02-08T13:44:48.028Z,24.13
2018-02-08T13:47:21.629Z,24.10
2018-02-08T13:49:51.588Z,22.00
2018-02-08T13:55:35.503Z,22.60
2018-02-08T13:58:22.925Z,22.73
2018-02-08T14:00:53.308Z,21.20
2018-02-08T14:03:22.358Z,22.73
2018-02-08T14:05:51.487Z,22.77
2018-02-08T14:08:19.747Z,19.93
2018-02-08T14:10:50.177Z,21.67
2018-02-08T14:13:19.550Z,22.97
2018-02-08T14:15:48.556Z,23.43
2018-02-08T14:18:19.740Z,22.00
2018-02-08T14:20:49.813Z,22.47
2018-02-08T14:23:18.895Z,22.83
2018-02-08T14:25:48.757Z,24.30
2018-02-08T14:28:20.040Z,23.87
2018-02-08T14:30:54.524Z,24.20
2018-02-08T14:33:22.969Z,25.80
2018-02-08T14:35:52.085Z,22.97
2018-02-08T14:38:21.576Z,23.30
2018-02-08T14:40:50.821Z,23.07
2018-02-08T14:43:21.403Z,26.00
2018-02-08T14:45:52.205Z,24.30
2018-02-08T14:48:21.682Z,24.83
2018-02-08T14:50:52.135Z,29.12
2018-02-08T14:53:31.168Z,25.70
2018-02-08T14:55:58.669Z,27.30
2018-02-08T14:58:26.176Z,22.47
2018-02-08T15:00:54.431Z,23.30
2018-02-08T15:03:22.351Z,23.03
2018-02-08T15:05:57.432Z,25.17
2018-02-08T15:08:25.273Z,26.73
2018-02-08T15:10:53.560Z,25.07
2018-02-08T15:13:22.705Z,22.80
2018-02-08T15:15:51.509Z,24.90
2018-02-08T15:18:22.391Z,22.87
2018-02-08T15:20:51.212Z,23.53
2018-02-08T15:23:21.280Z,24.40
2018-02-08T15:25:52.633Z,24.77
2018-02-08T15:28:24.077Z,24.40
2018-02-08T15:30:53.337Z,24.67
2018-02-08T15:33:23.136Z,25.00
2018-02-08T15:45:04.721Z,25.70
2018-02-08T15:47:55.546Z,23.73
2018-02-08T15:50:23.144Z,24.23
2018-02-08T15:52:52.683Z,25.43
2018-02-08T15:55:31.525Z,23.47
2018-02-08T15:57:59.016Z,24.97
2018-02-08T16:00:26.519Z,24.30
2018-02-08T16:02:54.004Z,25.23
2018-02-08T16:05:23.740Z,25.80
2018-02-08T16:07:53.270Z,25.57
2018-02-08T16:10:22.745Z,26.87
2018-02-08T16:12:52.103Z,24.80
2018-02-08T16:15:21.706Z,24.58
2018-02-08T16:17:53.153Z,24.87
2018-02-08T16:20:24.305Z,25.87
2018-02-08T16:22:54.403Z,23.83
2018-02-08T16:25:23.658Z,25.10
2018-02-08T16:27:53.313Z,26.30
2018-02-08T16:30:23.204Z,27.33
2018-02-08T16:32:52.500Z,24.58
2018-02-08T16:35:22.793Z,25.33
2018-02-08T16:38:01.837Z,26.15
2018-02-08T16:40:29.356Z,25.27
2018-02-08T16:42:56.865Z,24.35
2018-02-08T16:45:27.740Z,23.50
2018-02-08T16:47:55.240Z,24.48
2018-02-08T16:50:22.944Z,24.45
2018-02-08T16:52:53.181Z,23.60
2018-02-08T16:55:23.373Z,25.17
2018-02-08T16:57:53.317Z,26.08
2018-02-08T17:00:23.405Z,26.12
2018-02-08T17:03:02.741Z,24.10
2018-02-08T17:05:30.261Z,27.40
2018-02-08T17:07:57.756Z,27.73
2018-02-08T17:10:25.264Z,27.42
2018-02-08T17:12:53.338Z,27.90
2018-02-08T17:15:22.701Z,27.77
2018-02-08T17:17:52.645Z,28.23
2018-02-08T17:20:23.223Z,27.73
2018-02-08T17:22:52.517Z,28.30
2018-02-08T17:25:21.825Z,27.48
2018-02-08T17:27:52.237Z,27.35
2018-02-08T17:30:21.439Z,26.58
2018-02-08T17:32:51.417Z,29.05
2018-02-08T17:35:21.777Z,30.42
2018-02-08T17:38:01.601Z,31.45
2018-02-08T17:40:29.113Z,31.98
2018-02-08T17:42:56.614Z,32.83
2018-02-08T17:45:24.140Z,31.85
2018-02-08T17:47:53.836Z,30.48
2018-02-08T17:50:23.673Z,31.70
2018-02-08T17:52:52.802Z,31.08
2018-02-08T17:55:21.868Z,30.35
2018-02-08T17:57:50.503Z,30.15
2018-02-08T18:00:21.459Z,30.85
2018-02-08T18:02:52.028Z,30.77
2018-02-08T18:05:23.685Z,33.63
2018-02-08T18:07:53.530Z,31.67
2018-02-08T18:10:22.105Z,32.45
2018-02-08T18:12:51.336Z,33.20
2018-02-08T18:15:21.769Z,32.08
2018-02-08T18:17:51.789Z,31.00
2018-02-08T18:20:23.296Z,32.70
2018-02-08T18:22:52.369Z,32.50
2018-02-08T18:25:23.727Z,32.25
2018-02-08T18:27:52.700Z,35.80
2018-02-08T18:30:22.460Z,38.38
2018-02-08T18:32:52.881Z,35.85
2018-02-08T18:35:22.381Z,35.42
2018-02-08T18:37:53.188Z,34.47
2018-02-08T18:40:22.804Z,33.00
2018-02-08T18:42:52.852Z,32.70
2018-02-08T18:45:23.549Z,30.90
2018-02-08T18:47:52.092Z,31.67
2018-02-08T18:50:22.029Z,32.40
2018-02-08T18:52:51.484Z,32.08
2018-02-08T18:55:21.399Z,32.53
2018-02-08T18:57:52.433Z,30.62
2018-02-08T19:00:21.920Z,32.90
2018-02-08T19:02:51.464Z,30.55
2018-02-08T19:05:22.825Z,30.27
2018-02-08T19:07:51.869Z,30.50
2018-02-08T19:10:21.793Z,29.17
2018-02-08T19:12:51.114Z,34.33
2018-02-08T19:15:21.633Z,33.00
2018-02-08T19:17:51.913Z,33.10
2018-02-08T19:20:20.743Z,35.30
2018-02-08T19:22:51.360Z,31.77
2018-02-08T19:25:21.504Z,32.58
2018-02-08T19:27:51.088Z,30.95
2018-02-08T19:30:19.885Z,33.70
2018-02-08T19:32:51.641Z,36.33
2018-02-08T19:35:21.833Z,34.70
2018-02-08T19:37:51.888Z,32.17
2018-02-08T19:40:31.765Z,36.70
2018-02-08T19:43:00.030Z,37.55
2018-02-08T19:45:27.521Z,36.08
2018-02-08T19:47:55.104Z,34.45
2018-02-08T19:50:23.369Z,35.13
2018-02-08T19:52:52.660Z,35.00
2018-02-08T19:55:22.404Z,35.78
2018-02-08T19:57:51.577Z,33.53
2018-02-08T20:00:21.177Z,33.03
2018-02-08T20:02:51.492Z,31.65
2018-02-08T20:05:21.478Z,31.62
2018-02-08T20:07:51.471Z,30.10
2018-02-08T20:10:31.232Z,31.77
2018-02-08T20:12:58.753Z,27.02
2018-02-08T20:15:30.356Z,27.50
2018-02-08T20:17:58.640Z,28.25
2018-02-08T20:20:26.929Z,31.33
2018-02-08T20:22:55.213Z,28.75
2018-02-08T20:25:29.514Z,30.33
2018-02-08T20:27:57.040Z,27.85
2018-02-08T20:30:24.536Z,27.17
2018-02-08T20:32:52.647Z,26.70
2018-02-08T20:35:31.340Z,27.65
2018-02-08T20:37:58.849Z,25.92
2018-02-08T20:40:29.339Z,25.85
2018-02-08T20:43:02.628Z,26.33
2018-02-08T20:45:30.925Z,28.35
2018-02-08T20:47:59.200Z,27.85
2018-02-08T20:50:26.702Z,25.40
2018-02-08T20:52:54.221Z,25.40
2018-02-08T20:55:23.002Z,26.80
2018-02-08T20:57:52.087Z,26.92
2018-02-08T21:00:21.602Z,27.00
2018-02-08T21:02:55.363Z,23.90
2018-02-08T21:05:23.993Z,26.73
2018-02-08T21:07:52.048Z,26.77
2018-02-08T21:10:21.605Z,25.42
2018-02-08T21:12:53.076Z,27.10
2018-02-08T21:15:22.037Z,27.92
2018-02-08T21:17:51.724Z,29.33
2018-02-08T21:20:20.888Z,28.10
2018-02-08T21:22:51.003Z,28.08
2018-02-08T21:25:21.713Z,28.00
2018-02-08T21:27:51.686Z,28.52
2018-02-08T21:30:30.544Z,27.95
2018-02-08T21:32:58.058Z,28.27
2018-02-08T21:35:25.563Z,30.70
2018-02-08T21:37:53.229Z,30.35
2018-02-08T21:40:33.176Z,31.15
2018-02-08T21:43:00.690Z,32.28
2018-02-08T21:45:28.189Z,33.10
2018-02-08T21:47:56.469Z,31.12
2018-02-08T21:50:23.964Z,31.77
2018-02-08T21:52:52.724Z,31.25
2018-02-08T21:55:23.000Z,32.28
2018-02-08T21:57:53.248Z,34.53
2018-02-08T22:00:23.319Z,31.42
2018-02-08T22:02:52.887Z,37.70
2018-02-08T22:05:24.141Z,33.30
2018-02-08T22:07:52.053Z,36.20
2018-02-08T22:10:23.135Z,37.53
2018-02-08T22:12:53.704Z,37.50
2018-02-08T22:15:24.752Z,38.33
2018-02-08T22:17:53.241Z,38.90
2018-02-08T22:20:24.944Z,39.17
2018-02-08T22:22:52.641Z,38.90
2018-02-08T22:25:21.102Z,37.88
2018-02-08T22:27:49.610Z,41.10
2018-02-08T22:30:18.553Z,39.67
2018-02-08T22:32:53.347Z,42.10
2018-02-08T22:35:23.992Z,43.78
2018-02-08T22:37:52.844Z,41.85
2018-02-08T22:40:21.414Z,44.80
2018-02-08T22:42:52.973Z,43.15
2018-02-08T22:45:22.342Z,46.28
2018-02-08T22:47:50.586Z,47.62
2018-02-08T22:50:19.938Z,45.10
2018-02-08T22:52:57.897Z,43.72
2018-02-08T22:55:30.196Z,42.90
2018-02-08T22:57:58.216Z,45.70
2018-02-08T23:00:25.724Z,48.40
2018-02-08T23:02:53.248Z,46.92
2018-02-08T23:05:22.685Z,48.42
2018-02-08T23:07:52.025Z,48.72
2018-02-08T23:10:21.924Z,49.03
2018-02-08T23:12:51.684Z,46.13
2018-02-08T23:15:22.098Z,49.67
2018-02-08T23:17:52.201Z,47.38
2018-02-08T23:20:22.270Z,46.95
2018-02-08T23:22:53.949Z,49.65
2018-02-08T23:25:22.772Z,50.85
2018-02-08T23:27:54.295Z,50.58
2018-02-08T23:30:23.341Z,48.90
2018-02-08T23:32:52.224Z,48.10
2018-02-08T23:35:22.330Z,51.53
2018-02-08T23:37:51.137Z,51.30
2018-02-08T23:40:32.133Z,53.90
2018-02-08T23:42:59.630Z,54.20
2018-02-08T23:45:27.145Z,50.85
2018-02-08T23:47:54.696Z,53.33
2018-02-08T23:50:23.161Z,53.00
2018-02-08T23:53:01.345Z,51.50
2018-02-08T23:55:28.858Z,54.72
2018-02-08T23:57:57.780Z,53.65
